Terminal Aerodrome Forecast
Issued by NWS Albuquerque, NM

Home | Current Version | Previous Version | Text Only | Print | Product List | Glossary On
Versions: 1 2 3 4 5 6 7 8 9 10 11 12 13 14 15 16 17 18 19
000
FTUS45 KABQ 280500 RRA
TAFABQ
TAF
KABQ 280544Z 2806/0106 35008KT 2SM -SN BR BKN015 OVC025
      TEMPO 2806/2809 3/4SM -SN BR OVC007
     FM281100 VRB06KT 3SM -SN BR OVC015
     FM281900 15011KT P6SM VCSH SCT025 OVC050=

USA.gov is the U.S. government's official web portal to all federal, state and local government web resources and services.